sensor_id;sensor_type;location;lat;lon;timestamp;P1;durP1;ratioP1;P2;durP2;ratioP2
16310;SDS011;8264;48.510;8.872;2023-10-31T00:00:06;3.50;;;0.87;;
16310;SDS011;8264;48.510;8.872;2023-10-31T00:02:37;0.83;;;0.70;;
16310;SDS011;8264;48.510;8.872;2023-10-31T00:05:10;0.87;;;0.47;;
16310;SDS011;8264;48.510;8.872;2023-10-31T00:07:41;0.60;;;0.50;;
16310;SDS011;8264;48.510;8.872;2023-10-31T00:10:07;1.13;;;0.60;;
16310;SDS011;8264;48.510;8.872;2023-10-31T00:12:38;2.40;;;0.80;;
16310;SDS011;8264;48.510;8.872;2023-10-31T00:15:05;0.40;;;0.30;;
16310;SDS011;8264;48.510;8.872;2023-10-31T00:17:32;1.43;;;0.40;;
16310;SDS011;8264;48.510;8.872;2023-10-31T00:19:59;1.63;;;0.40;;
16310;SDS011;8264;48.510;8.872;2023-10-31T00:22:26;0.67;;;0.40;;
16310;SDS011;8264;48.510;8.872;2023-10-31T00:24:54;0.60;;;0.47;;
16310;SDS011;8264;48.510;8.872;2023-10-31T00:27:21;3.23;;;0.50;;
16310;SDS011;8264;48.510;8.872;2023-10-31T00:29:47;0.73;;;0.50;;
16310;SDS011;8264;48.510;8.872;2023-10-31T00:32:14;0.93;;;0.50;;
16310;SDS011;8264;48.510;8.872;2023-10-31T00:34:43;0.80;;;0.50;;
16310;SDS011;8264;48.510;8.872;2023-10-31T00:37:15;1.40;;;0.60;;
16310;SDS011;8264;48.510;8.872;2023-10-31T00:39:44;0.90;;;0.50;;
16310;SDS011;8264;48.510;8.872;2023-10-31T00:42:13;1.00;;;0.50;;
16310;SDS011;8264;48.510;8.872;2023-10-31T00:44:43;0.50;;;0.30;;
16310;SDS011;8264;48.510;8.872;2023-10-31T00:47:10;1.13;;;0.47;;
16310;SDS011;8264;48.510;8.872;2023-10-31T00:49:36;0.40;;;0.40;;
16310;SDS011;8264;48.510;8.872;2023-10-31T00:52:03;2.57;;;0.50;;
16310;SDS011;8264;48.510;8.872;2023-10-31T00:54:31;2.80;;;0.43;;
16310;SDS011;8264;48.510;8.872;2023-10-31T00:56:57;0.93;;;0.60;;
16310;SDS011;8264;48.510;8.872;2023-10-31T00:59:26;2.57;;;0.70;;
16310;SDS011;8264;48.510;8.872;2023-10-31T01:01:53;0.77;;;0.60;;
16310;SDS011;8264;48.510;8.872;2023-10-31T01:04:19;0.60;;;0.43;;
16310;SDS011;8264;48.510;8.872;2023-10-31T01:06:47;0.40;;;0.40;;
16310;SDS011;8264;48.510;8.872;2023-10-31T01:09:13;1.80;;;0.50;;
16310;SDS011;8264;48.510;8.872;2023-10-31T01:11:43;0.83;;;0.60;;
16310;SDS011;8264;48.510;8.872;2023-10-31T01:14:10;0.93;;;0.47;;
16310;SDS011;8264;48.510;8.872;2023-10-31T01:16:39;2.00;;;0.50;;
16310;SDS011;8264;48.510;8.872;2023-10-31T01:19:06;0.93;;;0.70;;
16310;SDS011;8264;48.510;8.872;2023-10-31T01:21:36;1.03;;;0.50;;
16310;SDS011;8264;48.510;8.872;2023-10-31T01:24:10;2.30;;;0.50;;
16310;SDS011;8264;48.510;8.872;2023-10-31T01:26:42;1.70;;;0.60;;
16310;SDS011;8264;48.510;8.872;2023-10-31T01:29:09;0.70;;;0.57;;
16310;SDS011;8264;48.510;8.872;2023-10-31T01:31:42;1.07;;;0.60;;
16310;SDS011;8264;48.510;8.872;2023-10-31T01:34:27;1.00;;;0.60;;
16310;SDS011;8264;48.510;8.872;2023-10-31T01:36:57;3.10;;;0.50;;
16310;SDS011;8264;48.510;8.872;2023-10-31T01:39:26;0.70;;;0.60;;
16310;SDS011;8264;48.510;8.872;2023-10-31T01:42:04;2.50;;;0.63;;
16310;SDS011;8264;48.510;8.872;2023-10-31T01:44:33;1.57;;;0.80;;
16310;SDS011;8264;48.510;8.872;2023-10-31T01:47:07;0.70;;;0.70;;
16310;SDS011;8264;48.510;8.872;2023-10-31T01:49:45;1.20;;;0.77;;
16310;SDS011;8264;48.510;8.872;2023-10-31T01:52:19;1.63;;;0.60;;
16310;SDS011;8264;48.510;8.872;2023-10-31T01:54:51;1.60;;;0.80;;
16310;SDS011;8264;48.510;8.872;2023-10-31T01:57:24;0.40;;;0.40;;
16310;SDS011;8264;48.510;8.872;2023-10-31T01:59:51;0.90;;;0.60;;
16310;SDS011;8264;48.510;8.872;2023-10-31T02:02:19;2.13;;;0.63;;
16310;SDS011;8264;48.510;8.872;2023-10-31T02:04:46;1.50;;;0.63;;
16310;SDS011;8264;48.510;8.872;2023-10-31T02:07:13;2.97;;;0.83;;
16310;SDS011;8264;48.510;8.872;2023-10-31T02:09:39;0.63;;;0.60;;
16310;SDS011;8264;48.510;8.872;2023-10-31T02:12:06;1.97;;;0.70;;
16310;SDS011;8264;48.510;8.872;2023-10-31T02:14:33;1.80;;;0.70;;
16310;SDS011;8264;48.510;8.872;2023-10-31T02:16:59;1.37;;;0.77;;
16310;SDS011;8264;48.510;8.872;2023-10-31T02:19:27;1.27;;;0.70;;
16310;SDS011;8264;48.510;8.872;2023-10-31T02:21:55;1.40;;;0.70;;
16310;SDS011;8264;48.510;8.872;2023-10-31T02:24:22;1.37;;;0.60;;
16310;SDS011;8264;48.510;8.872;2023-10-31T02:26:48;0.70;;;0.50;;
16310;SDS011;8264;48.510;8.872;2023-10-31T02:29:15;1.40;;;0.60;;
16310;SDS011;8264;48.510;8.872;2023-10-31T02:31:41;3.80;;;0.80;;
16310;SDS011;8264;48.510;8.872;2023-10-31T02:34:08;1.27;;;0.73;;
16310;SDS011;8264;48.510;8.872;2023-10-31T02:36:34;2.00;;;0.90;;
16310;SDS011;8264;48.510;8.872;2023-10-31T02:39:02;2.83;;;0.50;;
16310;SDS011;8264;48.510;8.872;2023-10-31T02:41:29;0.60;;;0.60;;
16310;SDS011;8264;48.510;8.872;2023-10-31T02:43:55;3.00;;;0.93;;
16310;SDS011;8264;48.510;8.872;2023-10-31T02:46:23;1.63;;;0.73;;
16310;SDS011;8264;48.510;8.872;2023-10-31T02:48:49;1.83;;;0.90;;
16310;SDS011;8264;48.510;8.872;2023-10-31T02:51:16;0.63;;;0.63;;
16310;SDS011;8264;48.510;8.872;2023-10-31T02:53:43;1.00;;;0.60;;
16310;SDS011;8264;48.510;8.872;2023-10-31T02:56:11;1.90;;;0.50;;
16310;SDS011;8264;48.510;8.872;2023-10-31T02:58:37;1.10;;;0.70;;
16310;SDS011;8264;48.510;8.872;2023-10-31T03:01:04;1.30;;;0.90;;
16310;SDS011;8264;48.510;8.872;2023-10-31T03:03:30;2.13;;;0.80;;
16310;SDS011;8264;48.510;8.872;2023-10-31T03:05:57;1.07;;;0.77;;
16310;SDS011;8264;48.510;8.872;2023-10-31T03:08:23;1.23;;;0.50;;
16310;SDS011;8264;48.510;8.872;2023-10-31T03:10:50;2.00;;;0.63;;
16310;SDS011;8264;48.510;8.872;2023-10-31T03:13:18;0.73;;;0.60;;
16310;SDS011;8264;48.510;8.872;2023-10-31T03:15:45;0.60;;;0.60;;
16310;SDS011;8264;48.510;8.872;2023-10-31T03:18:12;2.07;;;0.70;;
16310;SDS011;8264;48.510;8.872;2023-10-31T03:20:40;1.50;;;0.80;;
16310;SDS011;8264;48.510;8.872;2023-10-31T03:23:07;0.83;;;0.60;;
16310;SDS011;8264;48.510;8.872;2023-10-31T03:25:33;1.97;;;0.90;;
16310;SDS011;8264;48.510;8.872;2023-10-31T03:28:00;1.10;;;0.70;;
16310;SDS011;8264;48.510;8.872;2023-10-31T03:30:28;1.20;;;0.70;;
16310;SDS011;8264;48.510;8.872;2023-10-31T03:32:54;1.43;;;0.70;;
16310;SDS011;8264;48.510;8.872;2023-10-31T03:35:21;0.53;;;0.50;;
16310;SDS011;8264;48.510;8.872;2023-10-31T03:37:47;1.00;;;0.80;;
16310;SDS011;8264;48.510;8.872;2023-10-31T03:40:14;1.33;;;0.60;;
16310;SDS011;8264;48.510;8.872;2023-10-31T03:42:41;0.73;;;0.60;;
16310;SDS011;8264;48.510;8.872;2023-10-31T03:45:08;1.40;;;0.60;;
16310;SDS011;8264;48.510;8.872;2023-10-31T03:47:36;1.20;;;0.70;;
16310;SDS011;8264;48.510;8.872;2023-10-31T03:50:03;1.23;;;0.57;;
16310;SDS011;8264;48.510;8.872;2023-10-31T03:52:30;2.10;;;0.73;;
16310;SDS011;8264;48.510;8.872;2023-10-31T03:54:56;1.13;;;0.60;;
16310;SDS011;8264;48.510;8.872;2023-10-31T03:57:23;1.53;;;0.80;;
16310;SDS011;8264;48.510;8.872;2023-10-31T03:59:50;4.67;;;1.00;;
16310;SDS011;8264;48.510;8.872;2023-10-31T04:02:16;1.27;;;0.60;;
16310;SDS011;8264;48.510;8.872;2023-10-31T04:04:44;1.97;;;0.63;;
16310;SDS011;8264;48.510;8.872;2023-10-31T04:07:11;2.93;;;0.67;;
16310;SDS011;8264;48.510;8.872;2023-10-31T04:09:37;1.23;;;0.50;;
16310;SDS011;8264;48.510;8.872;2023-10-31T04:12:04;1.37;;;0.90;;
16310;SDS011;8264;48.510;8.872;2023-10-31T04:14:31;1.80;;;0.80;;
16310;SDS011;8264;48.510;8.872;2023-10-31T04:16:58;1.13;;;0.50;;
16310;SDS011;8264;48.510;8.872;2023-10-31T04:19:24;0.70;;;0.60;;
16310;SDS011;8264;48.510;8.872;2023-10-31T04:21:52;1.67;;;0.60;;
16310;SDS011;8264;48.510;8.872;2023-10-31T04:24:20;1.63;;;0.93;;
16310;SDS011;8264;48.510;8.872;2023-10-31T04:26:46;2.37;;;0.60;;
16310;SDS011;8264;48.510;8.872;2023-10-31T04:29:13;2.17;;;0.50;;
16310;SDS011;8264;48.510;8.872;2023-10-31T04:31:39;0.70;;;0.40;;
16310;SDS011;8264;48.510;8.872;2023-10-31T04:34:06;2.30;;;0.53;;
16310;SDS011;8264;48.510;8.872;2023-10-31T04:36:32;1.93;;;0.43;;
16310;SDS011;8264;48.510;8.872;2023-10-31T04:39:00;1.00;;;0.50;;
16310;SDS011;8264;48.510;8.872;2023-10-31T04:41:27;2.63;;;0.70;;
16310;SDS011;8264;48.510;8.872;2023-10-31T04:43:54;1.80;;;0.63;;
16310;SDS011;8264;48.510;8.872;2023-10-31T04:46:21;1.23;;;0.47;;
16310;SDS011;8264;48.510;8.872;2023-10-31T04:48:48;2.20;;;0.70;;
16310;SDS011;8264;48.510;8.872;2023-10-31T04:51:14;0.53;;;0.50;;
16310;SDS011;8264;48.510;8.872;2023-10-31T04:53:41;1.50;;;0.63;;
16310;SDS011;8264;48.510;8.872;2023-10-31T04:56:13;1.40;;;0.60;;
16310;SDS011;8264;48.510;8.872;2023-10-31T04:58:39;0.93;;;0.60;;
16310;SDS011;8264;48.510;8.872;2023-10-31T05:01:08;1.50;;;0.63;;
16310;SDS011;8264;48.510;8.872;2023-10-31T05:03:34;0.87;;;0.50;;
16310;SDS011;8264;48.510;8.872;2023-10-31T05:06:01;1.57;;;0.60;;
16310;SDS011;8264;48.510;8.872;2023-10-31T05:08:28;2.10;;;0.70;;
16310;SDS011;8264;48.510;8.872;2023-10-31T05:10:55;2.70;;;0.90;;
16310;SDS011;8264;48.510;8.872;2023-10-31T05:13:23;1.17;;;0.80;;
16310;SDS011;8264;48.510;8.872;2023-10-31T05:15:49;0.97;;;0.77;;
16310;SDS011;8264;48.510;8.872;2023-10-31T05:18:16;1.67;;;0.80;;
16310;SDS011;8264;48.510;8.872;2023-10-31T05:20:42;2.43;;;0.60;;
16310;SDS011;8264;48.510;8.872;2023-10-31T05:23:09;1.30;;;0.70;;
16310;SDS011;8264;48.510;8.872;2023-10-31T05:25:36;1.37;;;0.60;;
16310;SDS011;8264;48.510;8.872;2023-10-31T05:28:02;0.70;;;0.57;;
16310;SDS011;8264;48.510;8.872;2023-10-31T05:30:30;1.20;;;0.53;;
16310;SDS011;8264;48.510;8.872;2023-10-31T05:32:57;2.67;;;1.00;;
16310;SDS011;8264;48.510;8.872;2023-10-31T05:35:24;2.60;;;0.70;;
16310;SDS011;8264;48.510;8.872;2023-10-31T05:37:50;1.87;;;0.70;;
16310;SDS011;8264;48.510;8.872;2023-10-31T05:40:17;1.40;;;0.60;;
16310;SDS011;8264;48.510;8.872;2023-10-31T05:42:44;0.90;;;0.60;;
16310;SDS011;8264;48.510;8.872;2023-10-31T05:45:10;1.60;;;0.63;;
16310;SDS011;8264;48.510;8.872;2023-10-31T05:47:38;1.23;;;0.60;;
16310;SDS011;8264;48.510;8.872;2023-10-31T05:50:05;2.90;;;0.90;;
16310;SDS011;8264;48.510;8.872;2023-10-31T05:52:33;0.90;;;0.60;;
16310;SDS011;8264;48.510;8.872;2023-10-31T05:55:00;2.90;;;0.90;;
16310;SDS011;8264;48.510;8.872;2023-10-31T05:57:26;3.97;;;0.80;;
16310;SDS011;8264;48.510;8.872;2023-10-31T05:59:53;1.33;;;0.83;;
16310;SDS011;8264;48.510;8.872;2023-10-31T06:02:19;2.50;;;0.67;;
16310;SDS011;8264;48.510;8.872;2023-10-31T06:04:47;3.07;;;0.90;;
16310;SDS011;8264;48.510;8.872;2023-10-31T06:07:14;2.33;;;0.77;;
16310;SDS011;8264;48.510;8.872;2023-10-31T06:09:41;1.10;;;0.70;;
16310;SDS011;8264;48.510;8.872;2023-10-31T06:12:07;2.13;;;0.73;;
16310;SDS011;8264;48.510;8.872;2023-10-31T06:14:34;1.57;;;0.70;;
16310;SDS011;8264;48.510;8.872;2023-10-31T06:17:00;1.40;;;0.67;;
16310;SDS011;8264;48.510;8.872;2023-10-31T06:19:27;2.53;;;0.70;;
16310;SDS011;8264;48.510;8.872;2023-10-31T06:21:55;1.03;;;0.70;;
16310;SDS011;8264;48.510;8.872;2023-10-31T06:24:21;1.33;;;0.80;;
16310;SDS011;8264;48.510;8.872;2023-10-31T06:26:48;2.23;;;0.80;;
16310;SDS011;8264;48.510;8.872;2023-10-31T06:29:15;2.60;;;0.70;;
16310;SDS011;8264;48.510;8.872;2023-10-31T06:31:42;1.57;;;0.97;;
16310;SDS011;8264;48.510;8.872;2023-10-31T06:34:09;1.77;;;0.70;;
16310;SDS011;8264;48.510;8.872;2023-10-31T06:36:35;1.63;;;0.90;;
16310;SDS011;8264;48.510;8.872;2023-10-31T06:39:03;3.27;;;0.70;;
16310;SDS011;8264;48.510;8.872;2023-10-31T06:41:30;1.37;;;0.93;;
16310;SDS011;8264;48.510;8.872;2023-10-31T06:43:57;0.97;;;0.87;;
16310;SDS011;8264;48.510;8.872;2023-10-31T06:46:23;1.43;;;0.70;;
16310;SDS011;8264;48.510;8.872;2023-10-31T06:48:50;2.03;;;0.90;;
16310;SDS011;8264;48.510;8.872;2023-10-31T06:51:17;2.83;;;0.90;;
16310;SDS011;8264;48.510;8.872;2023-10-31T06:53:43;2.23;;;0.90;;
16310;SDS011;8264;48.510;8.872;2023-10-31T06:56:12;2.37;;;0.97;;
16310;SDS011;8264;48.510;8.872;2023-10-31T06:58:39;1.20;;;0.77;;
16310;SDS011;8264;48.510;8.872;2023-10-31T07:01:06;2.30;;;1.20;;
16310;SDS011;8264;48.510;8.872;2023-10-31T07:03:36;3.20;;;1.10;;
16310;SDS011;8264;48.510;8.872;2023-10-31T07:06:03;2.83;;;0.90;;
16310;SDS011;8264;48.510;8.872;2023-10-31T07:08:30;1.93;;;0.70;;
16310;SDS011;8264;48.510;8.872;2023-10-31T07:10:56;1.13;;;0.70;;
16310;SDS011;8264;48.510;8.872;2023-10-31T07:13:24;2.07;;;0.77;;
16310;SDS011;8264;48.510;8.872;2023-10-31T07:15:51;2.73;;;0.70;;
16310;SDS011;8264;48.510;8.872;2023-10-31T07:18:17;4.57;;;0.87;;
16310;SDS011;8264;48.510;8.872;2023-10-31T07:20:44;1.60;;;0.80;;
16310;SDS011;8264;48.510;8.872;2023-10-31T07:23:11;3.40;;;0.90;;
16310;SDS011;8264;48.510;8.872;2023-10-31T07:25:38;2.60;;;0.93;;
16310;SDS011;8264;48.510;8.872;2023-10-31T07:28:04;2.67;;;0.77;;
16310;SDS011;8264;48.510;8.872;2023-10-31T07:30:32;2.30;;;0.67;;
16310;SDS011;8264;48.510;8.872;2023-10-31T07:32:59;3.13;;;0.80;;
16310;SDS011;8264;48.510;8.872;2023-10-31T07:35:26;3.70;;;0.83;;
16310;SDS011;8264;48.510;8.872;2023-10-31T07:37:53;1.47;;;0.80;;
16310;SDS011;8264;48.510;8.872;2023-10-31T07:40:19;2.10;;;0.80;;
16310;SDS011;8264;48.510;8.872;2023-10-31T07:42:47;1.93;;;0.97;;
16310;SDS011;8264;48.510;8.872;2023-10-31T07:45:14;1.63;;;0.90;;
16310;SDS011;8264;48.510;8.872;2023-10-31T07:47:42;2.97;;;0.93;;
16310;SDS011;8264;48.510;8.872;2023-10-31T07:50:09;1.47;;;0.73;;
16310;SDS011;8264;48.510;8.872;2023-10-31T07:52:36;1.83;;;1.00;;
16310;SDS011;8264;48.510;8.872;2023-10-31T07:55:02;2.70;;;0.70;;
16310;SDS011;8264;48.510;8.872;2023-10-31T07:57:29;1.27;;;0.80;;
16310;SDS011;8264;48.510;8.872;2023-10-31T07:59:55;1.33;;;0.90;;
16310;SDS011;8264;48.510;8.872;2023-10-31T08:02:22;1.37;;;0.70;;
16310;SDS011;8264;48.510;8.872;2023-10-31T08:04:50;1.10;;;0.90;;
16310;SDS011;8264;48.510;8.872;2023-10-31T08:07:16;3.83;;;1.17;;
16310;SDS011;8264;48.510;8.872;2023-10-31T08:09:43;1.50;;;0.80;;
16310;SDS011;8264;48.510;8.872;2023-10-31T08:12:09;1.97;;;1.17;;
16310;SDS011;8264;48.510;8.872;2023-10-31T08:14:36;1.13;;;0.83;;
16310;SDS011;8264;48.510;8.872;2023-10-31T08:17:02;3.23;;;1.10;;
16310;SDS011;8264;48.510;8.872;2023-10-31T08:19:29;2.97;;;1.30;;
16310;SDS011;8264;48.510;8.872;2023-10-31T08:21:57;3.00;;;1.10;;
16310;SDS011;8264;48.510;8.872;2023-10-31T08:24:23;2.93;;;1.20;;
16310;SDS011;8264;48.510;8.872;2023-10-31T08:26:51;2.13;;;1.20;;
16310;SDS011;8264;48.510;8.872;2023-10-31T08:29:18;3.77;;;1.00;;
16310;SDS011;8264;48.510;8.872;2023-10-31T08:31:44;3.43;;;1.00;;
16310;SDS011;8264;48.510;8.872;2023-10-31T08:34:11;4.70;;;1.40;;
16310;SDS011;8264;48.510;8.872;2023-10-31T08:36:37;2.00;;;1.23;;
16310;SDS011;8264;48.510;8.872;2023-10-31T08:39:05;4.37;;;1.20;;
16310;SDS011;8264;48.510;8.872;2023-10-31T08:41:32;5.87;;;1.50;;
16310;SDS011;8264;48.510;8.872;2023-10-31T08:43:59;3.60;;;1.20;;
16310;SDS011;8264;48.510;8.872;2023-10-31T08:46:36;5.13;;;1.40;;
16310;SDS011;8264;48.510;8.872;2023-10-31T08:49:03;2.73;;;1.30;;
16310;SDS011;8264;48.510;8.872;2023-10-31T08:51:30;2.53;;;1.10;;
16310;SDS011;8264;48.510;8.872;2023-10-31T08:54:00;4.70;;;1.30;;
16310;SDS011;8264;48.510;8.872;2023-10-31T08:56:33;4.63;;;1.20;;
16310;SDS011;8264;48.510;8.872;2023-10-31T08:59:09;2.77;;;1.30;;
16310;SDS011;8264;48.510;8.872;2023-10-31T09:01:40;3.73;;;1.00;;
16310;SDS011;8264;48.510;8.872;2023-10-31T09:04:09;3.67;;;1.40;;
16310;SDS011;8264;48.510;8.872;2023-10-31T09:06:39;3.53;;;1.20;;
16310;SDS011;8264;48.510;8.872;2023-10-31T09:09:07;5.50;;;1.57;;
16310;SDS011;8264;48.510;8.872;2023-10-31T09:11:49;5.87;;;1.27;;
16310;SDS011;8264;48.510;8.872;2023-10-31T09:14:19;5.07;;;1.57;;
16310;SDS011;8264;48.510;8.872;2023-10-31T09:16:47;5.63;;;1.47;;
16310;SDS011;8264;48.510;8.872;2023-10-31T09:19:22;4.27;;;1.63;;
16310;SDS011;8264;48.510;8.872;2023-10-31T09:21:52;4.63;;;1.70;;
16310;SDS011;8264;48.510;8.872;2023-10-31T09:24:27;6.07;;;1.10;;
16310;SDS011;8264;48.510;8.872;2023-10-31T09:29:55;4.93;;;1.13;;
16310;SDS011;8264;48.510;8.872;2023-10-31T09:32:28;3.10;;;1.40;;
16310;SDS011;8264;48.510;8.872;2023-10-31T09:34:55;5.97;;;1.50;;
16310;SDS011;8264;48.510;8.872;2023-10-31T09:37:38;3.60;;;1.27;;
16310;SDS011;8264;48.510;8.872;2023-10-31T09:40:50;5.80;;;1.30;;
16310;SDS011;8264;48.510;8.872;2023-10-31T09:43:24;5.23;;;1.30;;
16310;SDS011;8264;48.510;8.872;2023-10-31T09:45:53;7.67;;;1.33;;
16310;SDS011;8264;48.510;8.872;2023-10-31T09:48:20;4.23;;;1.40;;
16310;SDS011;8264;48.510;8.872;2023-10-31T09:50:51;2.07;;;0.90;;
16310;SDS011;8264;48.510;8.872;2023-10-31T09:53:21;2.43;;;1.10;;
16310;SDS011;8264;48.510;8.872;2023-10-31T09:55:48;2.73;;;1.03;;
16310;SDS011;8264;48.510;8.872;2023-10-31T09:58:15;3.53;;;1.17;;
16310;SDS011;8264;48.510;8.872;2023-10-31T10:00:42;3.50;;;1.10;;
16310;SDS011;8264;48.510;8.872;2023-10-31T10:03:10;2.57;;;1.17;;
16310;SDS011;8264;48.510;8.872;2023-10-31T10:05:40;2.20;;;0.90;;
16310;SDS011;8264;48.510;8.872;2023-10-31T10:08:11;4.37;;;1.30;;
16310;SDS011;8264;48.510;8.872;2023-10-31T10:10:41;2.70;;;1.10;;
16310;SDS011;8264;48.510;8.872;2023-10-31T10:13:08;2.50;;;1.07;;
16310;SDS011;8264;48.510;8.872;2023-10-31T10:15:43;1.97;;;1.10;;
16310;SDS011;8264;48.510;8.872;2023-10-31T10:30:39;2.57;;;0.77;;
16310;SDS011;8264;48.510;8.872;2023-10-31T10:39:41;1.93;;;0.77;;
16310;SDS011;8264;48.510;8.872;2023-10-31T10:48:27;1.20;;;0.80;;
16310;SDS011;8264;48.510;8.872;2023-10-31T10:54:09;0.57;;;0.50;;
16310;SDS011;8264;48.510;8.872;2023-10-31T10:57:15;2.67;;;0.70;;
16310;SDS011;8264;48.510;8.872;2023-10-31T11:00:04;0.50;;;0.43;;
16310;SDS011;8264;48.510;8.872;2023-10-31T11:02:44;0.60;;;0.60;;
16310;SDS011;8264;48.510;8.872;2023-10-31T11:05:23;1.27;;;0.60;;
16310;SDS011;8264;48.510;8.872;2023-10-31T11:07:54;0.77;;;0.67;;
16310;SDS011;8264;48.510;8.872;2023-10-31T11:10:38;2.97;;;0.77;;
16310;SDS011;8264;48.510;8.872;2023-10-31T11:13:26;0.70;;;0.60;;
16310;SDS011;8264;48.510;8.872;2023-10-31T11:16:04;0.97;;;0.60;;
16310;SDS011;8264;48.510;8.872;2023-10-31T11:18:37;1.27;;;0.40;;
16310;SDS011;8264;48.510;8.872;2023-10-31T11:21:16;1.93;;;0.47;;
16310;SDS011;8264;48.510;8.872;2023-10-31T11:23:56;1.13;;;0.53;;
16310;SDS011;8264;48.510;8.872;2023-10-31T11:26:31;1.13;;;0.40;;
16310;SDS011;8264;48.510;8.872;2023-10-31T11:29:10;0.43;;;0.40;;
16310;SDS011;8264;48.510;8.872;2023-10-31T11:31:39;1.50;;;0.40;;
16310;SDS011;8264;48.510;8.872;2023-10-31T11:34:15;0.50;;;0.30;;
16310;SDS011;8264;48.510;8.872;2023-10-31T11:43:11;0.53;;;0.50;;
16310;SDS011;8264;48.510;8.872;2023-10-31T11:45:53;0.40;;;0.40;;
16310;SDS011;8264;48.510;8.872;2023-10-31T11:51:36;1.50;;;0.50;;
16310;SDS011;8264;48.510;8.872;2023-10-31T11:54:15;2.33;;;0.50;;
16310;SDS011;8264;48.510;8.872;2023-10-31T11:56:52;3.20;;;0.60;;
16310;SDS011;8264;48.510;8.872;2023-10-31T11:59:30;1.50;;;0.67;;
16310;SDS011;8264;48.510;8.872;2023-10-31T12:02:14;2.20;;;0.47;;
16310;SDS011;8264;48.510;8.872;2023-10-31T12:04:50;1.20;;;0.60;;
16310;SDS011;8264;48.510;8.872;2023-10-31T12:07:41;1.00;;;0.60;;
16310;SDS011;8264;48.510;8.872;2023-10-31T12:10:22;0.53;;;0.50;;
16310;SDS011;8264;48.510;8.872;2023-10-31T12:13:04;1.07;;;0.50;;
16310;SDS011;8264;48.510;8.872;2023-10-31T12:15:42;3.67;;;0.57;;
16310;SDS011;8264;48.510;8.872;2023-10-31T12:18:42;0.57;;;0.50;;
16310;SDS011;8264;48.510;8.872;2023-10-31T12:21:38;1.23;;;0.40;;
16310;SDS011;8264;48.510;8.872;2023-10-31T12:24:15;1.03;;;0.40;;
16310;SDS011;8264;48.510;8.872;2023-10-31T12:26:44;0.70;;;0.40;;
16310;SDS011;8264;48.510;8.872;2023-10-31T12:29:19;0.40;;;0.40;;
16310;SDS011;8264;48.510;8.872;2023-10-31T12:31:52;1.30;;;0.50;;
16310;SDS011;8264;48.510;8.872;2023-10-31T12:34:29;1.23;;;0.70;;
16310;SDS011;8264;48.510;8.872;2023-10-31T12:36:59;0.53;;;0.40;;
16310;SDS011;8264;48.510;8.872;2023-10-31T12:39:42;3.50;;;0.63;;
16310;SDS011;8264;48.510;8.872;2023-10-31T12:42:15;1.10;;;0.60;;
16310;SDS011;8264;48.510;8.872;2023-10-31T12:44:54;0.83;;;0.60;;
16310;SDS011;8264;48.510;8.872;2023-10-31T12:47:25;1.77;;;0.60;;
16310;SDS011;8264;48.510;8.872;2023-10-31T12:50:08;1.83;;;0.53;;
16310;SDS011;8264;48.510;8.872;2023-10-31T12:52:50;0.77;;;0.50;;
16310;SDS011;8264;48.510;8.872;2023-10-31T12:55:29;2.27;;;0.70;;
16310;SDS011;8264;48.510;8.872;2023-10-31T12:57:57;1.73;;;0.60;;
16310;SDS011;8264;48.510;8.872;2023-10-31T13:00:33;1.03;;;0.60;;
16310;SDS011;8264;48.510;8.872;2023-10-31T13:03:11;2.13;;;0.50;;
16310;SDS011;8264;48.510;8.872;2023-10-31T13:05:43;1.50;;;0.73;;
16310;SDS011;8264;48.510;8.872;2023-10-31T13:08:15;1.20;;;0.60;;
16310;SDS011;8264;48.510;8.872;2023-10-31T13:10:42;0.77;;;0.57;;
16310;SDS011;8264;48.510;8.872;2023-10-31T13:13:18;1.53;;;0.60;;
16310;SDS011;8264;48.510;8.872;2023-10-31T13:15:47;2.63;;;0.60;;
16310;SDS011;8264;48.510;8.872;2023-10-31T13:18:16;0.77;;;0.57;;
16310;SDS011;8264;48.510;8.872;2023-10-31T13:20:50;1.97;;;0.70;;
16310;SDS011;8264;48.510;8.872;2023-10-31T13:23:17;1.70;;;0.67;;
16310;SDS011;8264;48.510;8.872;2023-10-31T13:26:11;1.43;;;0.60;;
16310;SDS011;8264;48.510;8.872;2023-10-31T13:28:38;0.80;;;0.60;;
16310;SDS011;8264;48.510;8.872;2023-10-31T13:31:10;2.80;;;0.83;;
16310;SDS011;8264;48.510;8.872;2023-10-31T13:33:40;1.47;;;0.70;;
16310;SDS011;8264;48.510;8.872;2023-10-31T13:36:21;2.47;;;0.90;;
16310;SDS011;8264;48.510;8.872;2023-10-31T13:38:48;3.23;;;0.87;;
16310;SDS011;8264;48.510;8.872;2023-10-31T13:41:21;1.13;;;0.90;;
16310;SDS011;8264;48.510;8.872;2023-10-31T13:43:57;0.90;;;0.70;;
16310;SDS011;8264;48.510;8.872;2023-10-31T13:46:28;3.73;;;0.90;;
16310;SDS011;8264;48.510;8.872;2023-10-31T13:49:04;1.47;;;0.60;;
16310;SDS011;8264;48.510;8.872;2023-10-31T13:51:35;2.43;;;0.80;;
16310;SDS011;8264;48.510;8.872;2023-10-31T13:54:02;1.87;;;0.50;;
16310;SDS011;8264;48.510;8.872;2023-10-31T13:56:31;1.53;;;0.60;;
16310;SDS011;8264;48.510;8.872;2023-10-31T13:58:59;1.80;;;0.63;;
16310;SDS011;8264;48.510;8.872;2023-10-31T14:01:26;1.57;;;0.60;;
16310;SDS011;8264;48.510;8.872;2023-10-31T14:03:57;2.20;;;0.60;;
16310;SDS011;8264;48.510;8.872;2023-10-31T14:06:30;0.80;;;0.60;;
16310;SDS011;8264;48.510;8.872;2023-10-31T14:08:57;2.67;;;0.80;;
16310;SDS011;8264;48.510;8.872;2023-10-31T14:11:24;1.80;;;0.43;;
16310;SDS011;8264;48.510;8.872;2023-10-31T14:13:51;3.20;;;0.67;;
16310;SDS011;8264;48.510;8.872;2023-10-31T14:16:18;0.93;;;0.50;;
16310;SDS011;8264;48.510;8.872;2023-10-31T14:18:44;1.60;;;0.70;;
16310;SDS011;8264;48.510;8.872;2023-10-31T14:21:12;0.80;;;0.53;;
16310;SDS011;8264;48.510;8.872;2023-10-31T14:23:40;2.57;;;0.70;;
16310;SDS011;8264;48.510;8.872;2023-10-31T14:26:07;1.43;;;0.53;;
16310;SDS011;8264;48.510;8.872;2023-10-31T14:28:34;1.13;;;0.67;;
16310;SDS011;8264;48.510;8.872;2023-10-31T14:31:00;1.20;;;0.63;;
16310;SDS011;8264;48.510;8.872;2023-10-31T14:33:27;1.53;;;0.57;;
16310;SDS011;8264;48.510;8.872;2023-10-31T14:35:54;1.60;;;0.83;;
16310;SDS011;8264;48.510;8.872;2023-10-31T14:38:21;0.93;;;0.70;;
16310;SDS011;8264;48.510;8.872;2023-10-31T14:40:49;2.63;;;0.80;;
16310;SDS011;8264;48.510;8.872;2023-10-31T14:43:15;4.57;;;0.87;;
16310;SDS011;8264;48.510;8.872;2023-10-31T14:45:43;1.63;;;0.60;;
16310;SDS011;8264;48.510;8.872;2023-10-31T14:48:10;1.90;;;0.53;;
16310;SDS011;8264;48.510;8.872;2023-10-31T14:50:36;1.50;;;0.60;;
16310;SDS011;8264;48.510;8.872;2023-10-31T14:53:04;1.63;;;0.73;;
16310;SDS011;8264;48.510;8.872;2023-10-31T14:55:30;0.80;;;0.50;;
16310;SDS011;8264;48.510;8.872;2023-10-31T14:57:58;4.30;;;0.97;;
16310;SDS011;8264;48.510;8.872;2023-10-31T15:00:25;2.27;;;0.70;;
16310;SDS011;8264;48.510;8.872;2023-10-31T15:02:51;1.67;;;0.70;;
16310;SDS011;8264;48.510;8.872;2023-10-31T15:05:18;1.60;;;0.80;;
16310;SDS011;8264;48.510;8.872;2023-10-31T15:07:44;1.57;;;0.70;;
16310;SDS011;8264;48.510;8.872;2023-10-31T15:10:11;3.27;;;0.70;;
16310;SDS011;8264;48.510;8.872;2023-10-31T15:12:38;3.10;;;0.80;;
16310;SDS011;8264;48.510;8.872;2023-10-31T15:15:08;4.43;;;1.10;;
16310;SDS011;8264;48.510;8.872;2023-10-31T15:17:35;1.97;;;0.90;;
16310;SDS011;8264;48.510;8.872;2023-10-31T15:20:02;1.10;;;0.80;;
16310;SDS011;8264;48.510;8.872;2023-10-31T15:22:29;3.53;;;0.90;;
16310;SDS011;8264;48.510;8.872;2023-10-31T15:24:55;1.87;;;0.93;;
16310;SDS011;8264;48.510;8.872;2023-10-31T15:27:22;2.83;;;0.73;;
16310;SDS011;8264;48.510;8.872;2023-10-31T15:29:49;1.83;;;0.70;;
16310;SDS011;8264;48.510;8.872;2023-10-31T15:32:17;2.47;;;0.70;;
16310;SDS011;8264;48.510;8.872;2023-10-31T15:34:43;1.80;;;0.70;;
16310;SDS011;8264;48.510;8.872;2023-10-31T15:37:10;0.70;;;0.53;;
16310;SDS011;8264;48.510;8.872;2023-10-31T15:39:37;1.77;;;0.70;;
16310;SDS011;8264;48.510;8.872;2023-10-31T15:42:05;1.70;;;0.70;;
16310;SDS011;8264;48.510;8.872;2023-10-31T15:44:32;1.27;;;0.73;;
16310;SDS011;8264;48.510;8.872;2023-10-31T15:46:58;1.20;;;0.70;;
16310;SDS011;8264;48.510;8.872;2023-10-31T15:49:26;8.50;;;1.30;;
16310;SDS011;8264;48.510;8.872;2023-10-31T15:51:53;4.57;;;0.80;;
16310;SDS011;8264;48.510;8.872;2023-10-31T15:54:19;1.40;;;0.90;;